Time;durP1;ratioP1;P1;durP2;ratioP2;P2;SDS_P1;SDS_P2;PMS_P1;PMS_P2;Temp;Humidity;BMP_temperature;BMP_pressure;BME280_temperature;BME280_humidity;BME280_pressure;Samples;Min_cycle;Max_cycle;Signal;HPM_P1;HPM_P2
2022/09/09 00:01:03;;;;;;;9.15;3.75;;;;;;;19.39;66.34;100787.09;4931209;28;20129;-54
2022/09/09 00:03:45;;;;;;;8.77;4.40;;;;;;;19.26;66.87;100778.59;4942545;28;20026;-50
2022/09/09 00:06:18;;;;;;;7.88;3.65;;;;;;;19.38;66.27;100783.59;4930183;28;20046;-51
2022/09/09 00:08:59;;;;;;;9.30;4.30;;;;;;;19.19;67.34;100779.63;4946046;28;20038;-49
2022/09/09 00:11:33;;;;;;;9.75;4.90;;;;;;;19.03;68.01;100775.59;4943037;28;20046;-51
2022/09/09 00:14:00;;;;;;;;;;;;;;;19.03;68.20;100765.03;4939348;28;20085;-51
2022/09/09 00:16:30;;;;;;;7.45;3.70;;;;;;;19.19;67.21;100763.78;4933698;28;19961;-50
2022/09/09 00:19:22;;;;;;;11.27;4.90;;;;;;;19.15;67.78;100774.47;4945023;28;20485;-47
2022/09/09 00:22:02;;;;;;;8.25;4.78;;;;;;;19.13;67.48;100776.25;4945770;28;20833;-55
2022/09/09 00:24:35;;;;;;;9.95;5.00;;;;;;;19.15;67.31;100779.75;4928304;28;20049;-52
2022/09/09 00:27:28;;;;;;;8.00;4.20;;;;;;;19.14;67.33;100772.72;4944202;28;20034;-49
2022/09/09 00:30:12;;;;;;;9.32;5.13;;;;;;;19.06;67.68;100772.91;4933631;28;20034;-36
2022/09/09 00:32:37;;;;;;;7.63;4.40;;;;;;;19.05;67.54;100760.59;4932877;28;20030;-53
2022/09/09 00:35:25;;;;;;;9.75;4.85;;;;;;;19.04;67.54;100772.91;4945712;28;20089;-48
2022/09/09 00:37:55;;;;;;;9.13;5.07;;;;;;;19.01;67.92;100766.84;4927194;28;20046;-51
2022/09/09 00:40:32;;;;;;;10.73;5.55;;;;;;;18.99;68.14;100763.38;4940687;28;20042;-56
2022/09/09 00:43:20;;;;;;;11.25;5.72;;;;;;;18.99;67.99;100764.22;4941633;28;20134;-55
2022/09/09 00:46:19;;;;;;;9.82;5.10;;;;;;;18.94;68.17;100757.31;4951051;28;20560;-53
2022/09/09 00:48:52;;;;;;;10.10;4.88;;;;;;;18.95;67.63;100757.28;4944826;28;20548;-51
2022/09/09 00:51:30;;;;;;;10.73;5.15;;;;;;;18.94;67.90;100762.59;4940465;28;20213;-56
2022/09/09 00:54:16;;;;;;;9.73;5.50;;;;;;;18.84;68.51;100756.69;4939748;28;20344;-53
2022/09/09 00:57:05;;;;;;;9.07;5.43;;;;;;;18.88;68.24;100758.34;4937484;28;20477;-54
2022/09/09 00:59:39;;;;;;;8.48;4.90;;;;;;;18.89;67.95;100756.56;4943666;28;20041;-55
2022/09/09 01:02:27;;;;;;;8.43;5.43;;;;;;;18.80;68.47;100762.03;4938572;28;20061;-56
2022/09/09 01:04:54;;;;;;;9.85;5.50;;;;;;;18.77;68.84;100749.78;4944660;28;20546;-54
2022/09/09 01:07:20;;;;;;;11.55;6.57;;;;;;;18.75;68.90;100754.22;4942558;28;20084;-51
2022/09/09 01:09:56;;;;;;;10.82;5.63;;;;;;;18.77;68.68;100757.72;4939815;28;20400;-55
2022/09/09 01:12:48;;;;;;;9.25;4.85;;;;;;;18.76;68.73;100750.69;4933977;28;20043;-49
2022/09/09 01:15:24;;;;;;;11.65;5.70;;;;;;;18.72;68.75;100745.50;4943386;28;20134;-48
2022/09/09 01:18:09;;;;;;;14.63;6.63;;;;;;;18.71;69.15;100742.00;4940748;28;20728;-52
2022/09/09 01:21:04;;;;;;;9.10;5.72;;;;;;;18.68;69.12;100739.41;4946445;28;20489;-51
2022/09/09 01:23:38;;;;;;;11.25;5.85;;;;;;;18.67;69.26;100728.88;4935386;28;20054;-51
2022/09/09 01:26:15;;;;;;;10.88;6.10;;;;;;;18.69;69.30;100737.63;4938560;28;20408;-51
2022/09/09 01:28:45;;;;;;;10.70;6.13;;;;;;;18.71;69.02;100731.44;4934983;28;20052;-50
2022/09/09 01:31:15;;;;;;;12.65;6.05;;;;;;;18.72;69.50;100727.03;4938680;28;20039;-53
2022/09/09 01:33:40;;;;;;;13.18;6.10;;;;;;;18.71;69.54;100723.50;4948273;28;20399;-50
2022/09/09 01:36:19;;;;;;;10.15;6.07;;;;;;;18.66;69.86;100722.75;4931216;28;20046;-56
2022/09/09 01:38:44;;;;;;;13.25;6.10;;;;;;;18.76;69.64;100718.13;4932140;28;20404;-49
2022/09/09 01:41:10;;;;;;;11.30;6.00;;;;;;;18.70;70.05;100721.75;4942033;28;20034;-51
2022/09/09 01:43:35;;;;;;;10.23;5.38;;;;;;;18.75;69.57;100714.59;4947905;28;20663;-52
2022/09/09 01:46:02;;;;;;;13.70;5.88;;;;;;;18.63;70.17;100706.97;4930538;28;20093;-48
2022/09/09 01:48:28;;;;;;;10.43;5.60;;;;;;;18.70;69.78;100708.56;4922789;28;20055;-52
2022/09/09 01:50:53;;;;;;;10.77;5.80;;;;;;;18.71;69.90;100707.66;4950410;28;20120;-52
2022/09/09 01:53:20;;;;;;;10.40;6.00;;;;;;;18.68;69.83;100702.44;4930347;28;20080;-52
2022/09/09 01:56:02;;;;;;;10.43;5.78;;;;;;;18.76;69.49;100702.28;4912809;28;20057;-52
2022/09/09 01:58:46;;;;;;;11.68;6.22;;;;;;;18.68;69.67;100706.84;4944549;28;20062;-51
2022/09/09 02:01:29;;;;;;;;;;;;;;;18.70;69.83;100713.84;4936425;28;20145;-47
2022/09/09 02:04:00;;;;;;;11.32;5.63;;;;;;;18.55;69.90;100707.13;4928574;28;19925;-55
2022/09/09 02:06:37;;;;;;;9.65;5.72;;;;;;;18.56;70.24;100702.72;4940420;28;20050;-52
2022/09/09 02:09:05;;;;;;;10.02;5.70;;;;;;;18.26;71.26;100698.94;4936687;28;20061;-51
2022/09/09 02:11:32;;;;;;;12.40;6.03;;;;;;;18.50;70.48;100694.88;4931845;28;20038;-50
2022/09/09 02:14:22;;;;;;;8.57;5.45;;;;;;;18.58;69.96;100699.16;4937065;28;20042;-53
2022/09/09 02:16:55;;;;;;;10.80;5.15;;;;;;;18.53;69.91;100698.34;4940846;28;20035;-56
2022/09/09 02:19:31;;;;;;;8.77;4.70;;;;;;;18.60;69.66;100691.19;4946365;28;20589;-51
2022/09/09 02:22:00;;;;;;;9.18;4.78;;;;;;;18.53;69.81;100689.56;4939415;28;20026;-50
2022/09/09 02:24:33;;;;;;;8.63;5.00;;;;;;;18.44;70.29;100685.34;4942200;28;20049;-50
2022/09/09 02:27:04;;;;;;;8.40;4.78;;;;;;;18.54;69.76;100689.50;4941895;28;20035;-53
2022/09/09 02:29:35;;;;;;;8.68;4.18;;;;;;;18.50;70.13;100686.97;4938012;28;20030;-50
2022/09/09 02:32:05;;;;;;;7.32;4.13;;;;;;;18.53;69.88;100681.63;4939313;28;20068;-49
2022/09/09 02:34:36;;;;;;;8.98;4.38;;;;;;;18.53;70.00;100676.34;4944156;28;20084;-49
2022/09/09 02:37:03;;;;;;;8.82;3.90;;;;;;;18.55;69.88;100672.78;4943064;28;20038;-51
2022/09/09 02:39:29;;;;;;;9.80;3.92;;;;;;;18.59;69.59;100678.91;4938171;28;20118;-52
2022/09/09 02:41:54;;;;;;;8.77;3.83;;;;;;;18.56;69.52;100671.91;4940077;28;20437;-51
2022/09/09 02:44:21;;;;;;;6.55;3.63;;;;;;;18.55;69.29;100667.50;4940054;28;20076;-53
2022/09/09 02:47:10;;;;;;;7.47;3.70;;;;;;;18.50;69.60;100674.63;4945959;28;20030;-46
2022/09/09 02:49:49;;;;;;;6.53;3.28;;;;;;;18.51;69.28;100672.88;4937582;28;20556;-51
2022/09/09 02:52:20;;;;;;;5.55;3.20;;;;;;;18.53;69.28;100671.06;4944288;28;20489;-48
2022/09/09 02:54:51;;;;;;;7.68;2.90;;;;;;;18.50;69.05;100677.28;4940456;28;20042;-52
2022/09/09 02:57:23;;;;;;;6.18;2.90;;;;;;;18.49;69.32;100669.38;4945364;28;20026;-52
2022/09/09 02:59:52;;;;;;;5.53;2.70;;;;;;;18.44;69.33;100669.50;4942682;28;20065;-47
2022/09/09 03:02:18;;;;;;;7.25;2.70;;;;;;;18.41;69.56;100676.63;4945458;28;20054;-53
2022/09/09 03:04:44;;;;;;;7.55;2.72;;;;;;;18.41;69.76;100663.44;4939678;28;20117;-51
2022/09/09 03:07:11;;;;;;;5.00;2.40;;;;;;;18.44;69.22;100669.50;4944438;28;20049;-53
2022/09/09 03:09:36;;;;;;;4.45;2.30;;;;;;;18.47;69.21;100669.44;4936338;28;20574;-52
2022/09/09 03:12:04;;;;;;;4.80;2.15;;;;;;;18.42;69.25;100658.09;4928266;28;20162;-53
2022/09/09 03:14:30;;;;;;;4.13;2.28;;;;;;;18.33;69.48;100654.81;4935797;28;20037;-53
2022/09/09 03:16:57;;;;;;;5.05;2.20;;;;;;;18.37;69.26;100657.34;4952232;28;20499;-47
2022/09/09 03:19:23;;;;;;;4.78;2.10;;;;;;;18.39;69.34;100658.19;4939894;28;20066;-50
2022/09/09 03:21:50;;;;;;;6.70;2.22;;;;;;;18.39;69.10;100657.31;4945387;28;20781;-50
2022/09/09 03:24:16;;;;;;;5.85;2.30;;;;;;;18.34;69.32;100656.53;4944879;28;20577;-48
2022/09/09 03:26:44;;;;;;;5.97;2.55;;;;;;;18.33;69.23;100657.44;4939905;28;20065;-48
2022/09/09 03:29:12;;;;;;;5.55;2.47;;;;;;;18.37;68.97;100662.63;4944463;28;21164;-51
2022/09/09 03:31:38;;;;;;;7.32;2.70;;;;;;;18.42;68.80;100651.97;4936214;28;20233;-48
2022/09/09 03:34:03;;;;;;;6.32;2.60;;;;;;;18.46;68.58;100653.63;4941638;28;20039;-52
2022/09/09 03:36:29;;;;;;;7.05;2.50;;;;;;;18.39;68.60;100650.25;4948477;28;20037;-50
2022/09/09 03:38:55;;;;;;;6.35;2.30;;;;;;;18.47;68.26;100653.59;4953110;28;20190;-51
2022/09/09 03:41:24;;;;;;;5.97;2.38;;;;;;;18.49;68.05;100653.56;4946047;28;20022;-51
2022/09/09 03:43:52;;;;;;;8.20;2.60;;;;;;;18.43;68.39;100653.69;4947869;28;20173;-53
2022/09/09 03:46:19;;;;;;;6.45;2.33;;;;;;;18.47;68.18;100655.38;4939921;28;20068;-54
2022/09/09 03:48:44;;;;;;;5.55;2.55;;;;;;;18.42;68.48;100650.19;4948642;28;20046;-53
2022/09/09 03:51:10;;;;;;;5.07;2.35;;;;;;;18.42;68.70;100655.47;4944386;28;20038;-51
2022/09/09 03:53:37;;;;;;;6.28;2.35;;;;;;;18.45;68.45;100654.53;4950608;28;20038;-51
2022/09/09 03:56:06;;;;;;;6.78;2.35;;;;;;;18.42;68.49;100654.63;4928910;28;20631;-53
2022/09/09 03:58:32;;;;;;;5.78;2.33;;;;;;;18.43;68.76;100649.28;4956367;28;20030;-52
2022/09/09 04:01:00;;;;;;;6.15;2.47;;;;;;;18.39;68.58;100650.25;4938914;28;20042;-52
2022/09/09 04:03:26;;;;;;;4.95;2.10;;;;;;;18.37;68.61;100648.53;4953524;28;20551;-49
2022/09/09 04:05:52;;;;;;;4.75;2.30;;;;;;;18.47;68.33;100644.81;4936842;28;20031;-52
2022/09/09 04:08:20;;;;;;;4.65;2.20;;;;;;;18.46;68.24;100643.06;4944991;28;20030;-52
2022/09/09 04:10:47;;;;;;;7.82;2.25;;;;;;;18.50;67.98;100642.97;4945793;28;20041;-50
2022/09/09 04:13:14;;;;;;;5.13;2.17;;;;;;;18.44;68.16;100640.47;4931371;28;20055;-52
2022/09/09 04:15:40;;;;;;;5.75;2.05;;;;;;;18.44;67.90;100637.81;4948815;28;20421;-53
2022/09/09 04:18:06;;;;;;;4.20;1.83;;;;;;;18.40;68.24;100628.25;4937825;28;20050;-54
2022/09/09 04:20:31;;;;;;;4.93;2.00;;;;;;;18.30;68.27;100629.34;4933184;28;20042;-49
2022/09/09 04:22:57;;;;;;;5.55;2.05;;;;;;;18.30;68.54;100623.22;4950674;28;20100;-50
2022/09/09 04:25:22;;;;;;;7.75;2.15;;;;;;;18.35;68.35;100626.63;4943156;28;20073;-49
2022/09/09 04:27:54;;;;;;;5.50;2.08;;;;;;;18.22;68.85;100610.19;4945838;28;20057;-51
2022/09/09 04:30:20;;;;;;;4.40;2.00;;;;;;;18.39;68.30;100618.59;4944854;28;20054;-49
2022/09/09 04:32:46;;;;;;;4.82;1.95;;;;;;;18.37;68.10;100623.03;4950577;28;20563;-53
2022/09/09 04:35:11;;;;;;;5.82;1.88;;;;;;;18.39;67.80;100610.66;4949015;28;20065;-53
2022/09/09 04:37:37;;;;;;;5.80;2.00;;;;;;;18.39;67.99;100621.22;4947293;28;20214;-56
2022/09/09 04:40:02;;;;;;;5.22;2.00;;;;;;;18.38;67.88;100618.63;4935269;28;20037;-53
2022/09/09 04:42:28;;;;;;;5.68;2.03;;;;;;;18.28;67.85;100614.44;4952243;28;20121;-52
2022/09/09 04:44:54;;;;;;;5.90;2.13;;;;;;;18.33;68.01;100607.31;4938586;28;20018;-50
2022/09/09 04:47:21;;;;;;;4.28;1.98;;;;;;;18.23;68.50;100615.44;4944712;28;21525;-48
2022/09/09 04:49:46;;;;;;;5.30;1.80;;;;;;;18.34;68.18;100612.53;4944262;28;20149;-55
2022/09/09 04:52:11;;;;;;;6.03;1.90;;;;;;;18.36;67.92;100601.97;4942682;28;20090;-53
2022/09/09 04:54:37;;;;;;;6.68;2.00;;;;;;;18.36;68.11;100612.53;4943664;28;20108;-56
2022/09/09 04:57:02;;;;;;;5.47;2.00;;;;;;;18.43;68.02;100611.44;4944226;28;20572;-49
2022/09/09 04:59:28;;;;;;;5.43;2.20;;;;;;;18.39;67.89;100607.16;4943276;28;20026;-51
2022/09/09 05:01:55;;;;;;;4.97;2.00;;;;;;;18.32;68.21;100611.72;4946018;28;20038;-51
2022/09/09 05:04:21;;;;;;;6.57;2.20;;;;;;;18.36;68.06;100601.97;4948541;28;20058;-51
2022/09/09 05:06:46;;;;;;;8.30;2.30;;;;;;;18.27;68.64;100613.59;4947828;28;20132;-51
2022/09/09 05:09:11;;;;;;;7.03;2.30;;;;;;;18.36;68.14;100615.16;4943396;28;20119;-52
2022/09/09 05:11:38;;;;;;;9.00;2.10;;;;;;;18.36;68.18;100610.72;4947190;28;20038;-53
2022/09/09 05:14:04;;;;;;;7.82;2.30;;;;;;;18.39;67.81;100610.66;4935103;28;20137;-53
2022/09/09 05:16:30;;;;;;;6.47;2.42;;;;;;;18.11;68.82;100604.28;4949205;28;20432;-50
2022/09/09 05:18:55;;;;;;;9.93;2.53;;;;;;;18.31;68.19;100599.41;4945384;28;20046;-52
2022/09/09 05:21:22;;;;;;;9.95;2.60;;;;;;;18.28;68.41;100602.13;4950367;28;21442;-52
2022/09/09 05:23:51;;;;;;;6.43;2.50;;;;;;;18.39;67.99;100594.84;4943516;28;20030;-50
2022/09/09 05:26:21;;;;;;;8.43;2.55;;;;;;;18.43;67.82;100595.63;4945249;28;20476;-50
2022/09/09 05:28:47;;;;;;;6.68;2.25;;;;;;;18.35;68.14;100594.94;4935347;28;20030;-53
2022/09/09 05:31:16;;;;;;;6.82;2.60;;;;;;;18.35;68.08;100594.94;4941284;28;20493;-54
2022/09/09 05:33:45;;;;;;;7.65;2.63;;;;;;;18.43;68.11;100591.22;4940582;28;20055;-54
2022/09/09 05:36:13;;;;;;;5.82;2.55;;;;;;;18.45;68.08;100592.06;4937640;28;20438;-54
2022/09/09 05:38:40;;;;;;;5.82;2.50;;;;;;;18.64;68.08;100598.66;4940526;28;20381;-46
2022/09/09 05:41:06;;;;;;;8.00;2.47;;;;;;;18.89;67.44;100601.59;4936982;28;20048;-49
2022/09/09 05:43:32;;;;;;;6.75;2.33;;;;;;;18.96;66.83;100597.00;4941495;28;20808;-49
2022/09/09 05:46:14;;;;;;;5.90;2.58;;;;;;;18.93;66.33;100591.78;4945715;28;20026;-50
2022/09/09 05:48:42;;;;;;;5.47;2.20;;;;;;;19.16;65.74;100594.69;4943300;28;20051;-53
2022/09/09 05:51:12;;;;;;;6.20;2.40;;;;;;;19.15;65.35;100597.41;4931345;28;20030;-53
2022/09/09 05:53:38;;;;;;;7.10;2.42;;;;;;;19.22;65.31;100599.81;4954719;28;20023;-49
2022/09/09 05:56:17;;;;;;;8.07;2.40;;;;;;;19.36;65.05;100608.28;4934427;28;20064;-48
2022/09/09 05:58:43;;;;;;;7.28;2.40;;;;;;;19.25;65.47;100606.81;4944293;28;20704;-51
2022/09/09 06:01:18;;;;;;;9.65;2.55;;;;;;;19.40;65.16;100619.63;4937538;28;20073;-54
2022/09/09 06:03:44;;;;;;;6.90;2.50;;;;;;;19.46;64.79;100608.91;4940538;28;20413;-52
2022/09/09 06:06:12;;;;;;;6.13;2.20;;;;;;;19.49;64.88;100608.84;4943856;28;20096;-50
2022/09/09 06:08:44;;;;;;;7.78;2.40;;;;;;;19.32;65.14;100611.03;4949397;28;20038;-51
2022/09/09 06:11:12;;;;;;;9.27;2.30;;;;;;;19.44;64.73;100614.22;4957533;28;20482;-51
2022/09/09 06:13:38;;;;;;;8.20;2.60;;;;;;;19.33;64.66;100616.25;4945940;28;20065;-49
2022/09/09 06:16:05;;;;;;;9.02;2.17;;;;;;;19.48;64.42;100608.88;4938405;28;20230;-48
2022/09/09 06:18:30;;;;;;;10.30;2.10;;;;;;;19.49;64.39;100614.13;4948060;28;20042;-52
2022/09/09 06:20:57;;;;;;;6.70;2.33;;;;;;;19.50;64.27;100609.72;4948559;28;20050;-52
2022/09/09 06:23:23;;;;;;;11.55;2.20;;;;;;;19.63;64.05;100619.91;4943720;28;20118;-53
2022/09/09 06:25:51;;;;;;;7.20;2.35;;;;;;;19.61;63.83;100610.28;4938250;28;20258;-51
2022/09/09 06:28:19;;;;;;;7.90;2.45;;;;;;;19.74;63.53;100612.53;4955276;28;20499;-54
2022/09/09 06:30:44;;;;;;;7.80;2.40;;;;;;;19.89;63.48;100613.88;4950380;28;20053;-52
2022/09/09 06:33:11;;;;;;;9.48;2.60;;;;;;;19.71;62.89;100617.03;4953400;28;20030;-52
2022/09/09 06:35:36;;;;;;;8.88;2.83;;;;;;;19.58;63.77;100619.16;4952637;28;20129;-50
2022/09/09 06:38:03;;;;;;;9.98;2.70;;;;;;;19.83;62.96;100619.31;4942949;28;20113;-53
2022/09/09 06:40:30;;;;;;;11.27;2.90;;;;;;;19.70;62.85;100623.25;4953076;28;20030;-49
2022/09/09 06:42:59;;;;;;;8.60;3.00;;;;;;;19.90;62.58;100612.97;4951965;28;20100;-55
2022/09/09 06:45:25;;;;;;;7.95;3.03;;;;;;;19.91;62.95;100616.47;4948246;28;20042;-50
2022/09/09 06:47:56;;;;;;;8.63;3.20;;;;;;;19.95;62.22;100616.31;4945619;28;20026;-54
2022/09/09 06:50:22;;;;;;;7.55;3.03;;;;;;;19.73;62.85;100616.09;4950814;28;20365;-50
2022/09/09 06:52:47;;;;;;;8.73;3.20;;;;;;;19.98;62.49;100600.38;4951908;28;20624;-52
2022/09/09 06:55:13;;;;;;;8.40;3.40;;;;;;;20.01;62.51;100613.50;4938723;28;20050;-46
2022/09/09 06:57:38;;;;;;;12.75;3.42;;;;;;;20.02;62.62;100615.25;4956694;28;20378;-49
2022/09/09 07:00:04;;;;;;;10.90;3.75;;;;;;;19.82;62.65;100612.34;4935638;28;20509;-47
2022/09/09 07:02:29;;;;;;;8.95;3.67;;;;;;;20.04;62.39;100609.91;4951575;28;20027;-53
2022/09/09 07:04:54;;;;;;;10.73;3.90;;;;;;;20.12;62.26;100607.91;4946423;28;20516;-52
2022/09/09 07:07:20;;;;;;;12.80;3.78;;;;;;;19.85;62.85;100612.22;4944144;28;20038;-50
2022/09/09 07:09:45;;;;;;;10.43;3.80;;;;;;;20.12;62.46;100611.44;4948369;28;20049;-49
2022/09/09 07:12:12;;;;;;;8.02;3.80;;;;;;;19.95;62.12;100615.47;4938122;28;20302;-51
2022/09/09 07:14:37;;;;;;;8.98;4.03;;;;;;;20.08;62.45;100612.41;4944152;28;20418;-52
2022/09/09 07:17:03;;;;;;;10.60;3.35;;;;;;;20.28;61.82;100609.19;4954727;28;20085;-46
2022/09/09 07:19:28;;;;;;;10.30;3.55;;;;;;;20.27;61.52;100616.25;4956972;28;20763;-51
2022/09/09 07:21:53;;;;;;;10.00;3.65;;;;;;;19.99;62.31;100596.81;4936379;28;20042;-53
2022/09/09 07:24:19;;;;;;;9.43;3.80;;;;;;;20.10;62.06;100607.09;4949255;28;20119;-48
2022/09/09 07:26:45;;;;;;;13.63;3.90;;;;;;;20.04;62.09;100605.50;4945563;28;20229;-48
2022/09/09 07:29:13;;;;;;;11.68;3.85;;;;;;;20.19;61.78;100612.09;4952408;28;20068;-54
2022/09/09 07:31:39;;;;;;;9.80;3.78;;;;;;;20.13;61.95;100613.13;4936956;28;20482;-48
2022/09/09 07:34:05;;;;;;;9.35;4.10;;;;;;;20.09;62.01;100608.88;4929582;28;20046;-54
2022/09/09 07:36:39;;;;;;;11.23;3.75;;;;;;;20.00;62.39;100608.28;4952217;28;20040;-51
2022/09/09 07:39:13;;;;;;;10.77;4.13;;;;;;;19.83;62.79;100616.69;4949810;28;20567;-51
2022/09/09 07:41:43;;;;;;;11.07;4.10;;;;;;;20.06;62.13;100614.25;4944265;28;20947;-49
2022/09/09 07:44:12;;;;;;;10.88;4.63;;;;;;;19.97;62.61;100606.59;4937808;28;20423;-51
2022/09/09 07:46:39;;;;;;;7.85;4.18;;;;;;;19.86;62.91;100616.63;4949096;28;20030;-51
2022/09/09 07:49:05;;;;;;;10.77;4.57;;;;;;;19.80;63.41;100611.50;4945408;28;20037;-54
2022/09/09 07:51:34;;;;;;;9.27;4.13;;;;;;;19.88;62.83;100614.81;4933484;28;20042;-48
2022/09/09 07:54:02;;;;;;;8.63;3.97;;;;;;;20.04;62.76;100618.72;4937830;28;20038;-54
2022/09/09 07:56:29;;;;;;;8.80;4.30;;;;;;;19.70;63.14;100616.16;4945219;28;20106;-53
2022/09/09 07:58:58;;;;;;;14.25;4.25;;;;;;;20.06;62.67;100610.75;4944244;28;20133;-52
2022/09/09 08:01:31;;;;;;;9.82;3.95;;;;;;;20.26;62.24;100616.28;4949852;28;20061;-50
2022/09/09 08:04:06;;;;;;;12.73;4.30;;;;;;;20.37;61.82;100621.31;4931478;28;20042;-51
2022/09/09 08:06:36;;;;;;;10.20;4.10;;;;;;;20.33;61.81;100617.00;4944316;28;20458;-50
2022/09/09 08:09:01;;;;;;;8.63;4.05;;;;;;;20.31;62.27;100622.31;4930521;28;20082;-50
2022/09/09 08:11:29;;;;;;;11.93;3.78;;;;;;;20.35;61.64;100621.34;4942087;28;20030;-50
2022/09/09 08:13:55;;;;;;;11.57;3.80;;;;;;;20.41;61.48;100618.50;4913336;28;20043;-52
2022/09/09 08:16:23;;;;;;;13.25;3.85;;;;;;;20.14;61.72;100608.72;4950331;28;20041;-49
2022/09/09 08:18:51;;;;;;;15.15;3.90;;;;;;;20.42;61.33;100624.69;4936515;28;20982;-54
2022/09/09 08:21:19;;;;;;;9.02;3.42;;;;;;;20.32;61.33;100628.47;4945033;28;20065;-49
2022/09/09 08:23:46;;;;;;;8.15;3.60;;;;;;;20.24;61.62;100623.44;4935591;28;20800;-48
2022/09/09 08:26:19;;;;;;;11.40;3.58;;;;;;;20.24;61.80;100620.78;4941997;28;20460;-51
2022/09/09 08:28:44;;;;;;;6.07;3.05;;;;;;;20.50;61.50;100618.22;4928291;28;20508;-55
2022/09/09 08:31:19;;;;;;;9.20;3.28;;;;;;;20.55;61.12;100621.56;4945119;28;20322;-52
2022/09/09 08:33:47;;;;;;;9.90;3.28;;;;;;;20.42;61.57;100617.59;4931426;28;20096;-55
2022/09/09 08:36:21;;;;;;;10.30;3.30;;;;;;;20.61;60.93;100626.69;4928600;28;20661;-55
2022/09/09 08:38:50;;;;;;;10.48;3.33;;;;;;;20.37;61.51;100631.91;4937493;28;20137;-52
2022/09/09 08:41:40;;;;;;;9.73;3.75;;;;;;;20.46;61.36;100629.81;4924340;28;20485;-53
2022/09/09 08:44:31;;;;;;;8.85;3.28;;;;;;;20.66;60.70;100626.56;4927904;28;20035;-55
2022/09/09 08:47:14;;;;;;;9.80;3.05;;;;;;;20.62;61.18;100628.41;4943776;28;20226;-58
2022/09/09 08:49:46;;;;;;;7.28;3.28;;;;;;;20.50;61.28;100634.09;4939649;28;20860;-52
2022/09/09 08:52:44;;;;;;;8.18;3.30;;;;;;;20.42;61.74;100627.31;4920709;28;20043;-53
2022/09/09 08:55:24;;;;;;;14.70;3.88;;;;;;;20.32;61.58;100626.72;4951665;28;20133;-55
2022/09/09 08:57:53;;;;;;;9.27;3.50;;;;;;;20.52;61.31;100626.13;4935185;28;20596;-53
2022/09/09 09:00:20;;;;;;;11.00;3.83;;;;;;;20.43;61.80;100623.78;4945441;28;20045;-51
2022/09/09 09:03:06;;;;;;;8.50;3.70;;;;;;;20.58;61.11;100625.94;4945427;28;20493;-52
2022/09/09 09:05:40;;;;;;;9.60;3.40;;;;;;;20.71;60.71;100629.91;4941424;28;20392;-57
2022/09/09 09:08:38;;;;;;;11.23;3.60;;;;;;;20.86;60.19;100636.53;4942995;28;20026;-51
2022/09/09 09:11:05;;;;;;;10.40;3.47;;;;;;;20.71;62.18;100640.53;4945658;28;20405;-52
2022/09/09 09:13:38;;;;;;;10.38;3.72;;;;;;;20.30;64.24;100641.78;4922767;28;20018;-53
2022/09/09 09:16:34;;;;;;;9.57;3.90;;;;;;;20.05;65.10;100639.00;4939092;28;20094;-52
2022/09/09 09:18:59;;;;;;;9.82;3.92;;;;;;;20.12;65.12;100643.19;4922472;28;20057;-56
2022/09/09 09:21:34;;;;;;;11.68;4.10;;;;;;;19.72;67.11;100643.44;4935582;28;20169;-48
2022/09/09 09:24:01;;;;;;;34.25;4.60;;;;;;;19.96;66.59;100643.66;4944690;28;20026;-57
2022/09/09 09:26:44;;;;;;;9.77;3.90;;;;;;;20.08;66.30;100641.53;4934707;28;20497;-51
2022/09/09 09:29:14;;;;;;;10.45;4.03;;;;;;;20.03;66.55;100638.16;4922449;28;20026;-49
2022/09/09 09:31:47;;;;;;;10.85;3.70;;;;;;;20.27;66.16;100641.84;4951527;28;20041;-51
2022/09/09 09:34:13;;;;;;;9.93;3.47;;;;;;;20.29;65.02;100628.56;4935030;28;20487;-53
2022/09/09 09:36:46;;;;;;;11.65;3.75;;;;;;;20.55;65.63;100626.03;4948116;28;20030;-58
2022/09/09 09:39:26;;;;;;;9.57;3.60;;;;;;;20.79;64.01;100621.72;4940800;28;20433;-56
2022/09/09 09:41:52;;;;;;;7.28;3.70;;;;;;;21.12;63.14;100628.56;4941621;28;20032;-56
2022/09/09 09:44:35;;;;;;;8.95;3.55;;;;;;;21.27;63.06;100628.06;4936078;28;20042;-52
2022/09/09 09:47:10;;;;;;;10.48;3.83;;;;;;;21.48;62.88;100623.78;4931964;28;20097;-54
2022/09/09 09:49:36;;;;;;;7.85;3.75;;;;;;;21.73;62.03;100618.47;4940098;28;20067;-54
2022/09/09 09:52:04;;;;;;;7.65;3.63;;;;;;;21.70;61.86;100615.94;4929121;28;20121;-52
2022/09/09 09:54:32;;;;;;;11.50;3.53;;;;;;;21.74;60.86;100622.88;4948632;28;20034;-49
2022/09/09 09:57:11;;;;;;;10.90;3.60;;;;;;;21.17;62.38;100628.41;4941816;28;20265;-53
2022/09/09 09:59:39;;;;;;;6.80;3.67;;;;;;;21.12;63.26;100623.25;4941849;28;20030;-52
2022/09/09 10:02:18;;;;;;;8.07;3.60;;;;;;;21.83;61.87;100615.41;4921629;28;20030;-57
2022/09/09 10:04:45;;;;;;;11.05;3.25;;;;;;;22.09;61.05;100616.25;4928699;28;20125;-51
2022/09/09 10:07:19;;;;;;;9.50;3.67;;;;;;;22.18;60.44;100621.25;4953254;28;20022;-52
2022/09/09 10:09:50;;;;;;;8.43;3.30;;;;;;;22.01;60.00;100611.28;4938657;28;20053;-52
2022/09/09 10:12:43;;;;;;;9.65;3.90;;;;;;;21.94;61.30;100620.34;4953928;28;20027;-55
2022/09/09 10:15:38;;;;;;;9.15;3.50;;;;;;;21.45;62.94;100616.81;4945250;28;20081;-55
2022/09/09 10:18:41;;;;;;;11.07;3.42;;;;;;;21.26;64.06;100623.69;4944014;28;20038;-54
2022/09/09 10:21:29;;;;;;;7.22;3.33;;;;;;;21.16;64.90;100624.94;4947193;28;20046;-52
2022/09/09 10:24:30;;;;;;;6.45;3.50;;;;;;;20.90;65.66;100624.91;4928792;28;20514;-53
2022/09/09 10:27:25;;;;;;;8.77;3.80;;;;;;;20.49;67.34;100623.59;4935809;28;20046;-57
2022/09/09 10:30:12;;;;;;;7.10;3.40;;;;;;;20.57;67.24;100622.41;4950200;28;20121;-54
2022/09/09 10:32:48;;;;;;;8.82;3.20;;;;;;;20.73;66.64;100630.75;4945428;28;20547;-53
2022/09/09 10:35:30;;;;;;;7.75;3.30;;;;;;;20.73;66.55;100628.09;4934244;28;20343;-61
2022/09/09 10:38:01;;;;;;;6.90;3.08;;;;;;;21.06;66.91;100623.44;4936161;28;20026;-52
2022/09/09 11:19:24;;;;;;;6.85;2.53;;;;;;;22.74;62.11;100618.19;4995218;27;20418;-60
2022/09/09 11:21:53;;;;;;;7.40;2.38;;;;;;;22.96;60.63;100611.03;4991055;28;20119;-60
2022/09/09 11:24:29;;;;;;;4.68;2.30;;;;;;;23.25;59.52;100615.97;4995537;28;20092;-61
2022/09/09 11:27:16;;;;;;;5.18;2.35;;;;;;;23.36;58.59;100620.88;4995133;28;20033;-54
2022/09/09 11:30:07;;;;;;;4.80;2.50;;;;;;;23.34;57.24;100610.28;5003926;28;20052;-52
2022/09/09 11:33:09;;;;;;;6.18;2.90;;;;;;;22.82;58.57;100618.69;5001625;28;20041;-53
2022/09/09 11:35:48;;;;;;;5.38;2.65;;;;;;;22.60;58.95;100616.03;5010002;28;20130;-56
2022/09/09 11:38:24;;;;;;;6.00;2.70;;;;;;;22.67;59.32;100613.06;4998327;28;20843;-52
2022/09/09 11:41:00;;;;;;;6.07;2.90;;;;;;;22.31;60.59;100619.84;4989051;28;20044;-53
2022/09/09 11:43:45;;;;;;;9.63;3.35;;;;;;;22.04;61.78;100615.56;4998516;28;20074;-54
2022/09/09 11:46:15;;;;;;;5.57;3.00;;;;;;;21.91;63.13;100615.13;4984140;28;20386;-57
2022/09/09 11:49:00;;;;;;;7.30;3.13;;;;;;;21.69;63.81;100616.88;5001270;28;20052;-55
2022/09/09 11:51:30;;;;;;;8.40;3.15;;;;;;;21.52;65.15;100620.13;4988760;28;20029;-43
2022/09/09 11:54:04;;;;;;;6.18;3.10;;;;;;;21.64;65.00;100621.47;5015659;28;20440;-41
2022/09/09 11:56:50;;;;;;;7.20;3.10;;;;;;;21.80;63.13;100626.16;4999043;28;20059;-41
2022/09/09 11:59:29;;;;;;;9.90;3.10;;;;;;;21.48;64.20;100622.91;4997928;28;20063;-39
2022/09/09 12:02:12;;;;;;;4.95;3.00;;;;;;;21.72;63.84;100632.66;4999810;28;20207;-44
2022/09/09 12:04:42;;;;;;;5.72;2.60;;;;;;;21.98;63.46;100626.44;5005809;28;20538;-46
2022/09/09 12:07:11;;;;;;;4.55;2.30;;;;;;;22.03;63.46;100637.75;5006464;28;20500;-47
2022/09/09 12:09:51;;;;;;;5.38;3.15;;;;;;;22.12;63.81;100627.66;4987098;28;20049;-50
2022/09/09 12:12:25;;;;;;;9.23;3.03;;;;;;;22.24;63.00;100626.31;4991924;28;20491;-53
2022/09/09 12:15:08;;;;;;;5.78;3.00;;;;;;;22.44;62.41;100623.75;4997111;28;20031;-51
2022/09/09 12:17:43;;;;;;;4.47;2.60;;;;;;;22.90;61.30;100633.41;4984982;28;20729;-51
2022/09/09 12:20:33;;;;;;;5.88;2.70;;;;;;;22.91;61.55;100626.31;4997117;28;20577;-53
2022/09/09 12:23:10;;;;;;;7.20;3.17;;;;;;;22.78;60.63;100625.09;4989865;28;20022;-51
2022/09/09 12:25:59;;;;;;;5.32;2.97;;;;;;;22.62;62.40;100630.13;4997243;28;20137;-51